createdAt,value
2023-05-08T00:01:49.965Z,6.20
2023-05-08T00:04:30.694Z,6.20
2023-05-08T00:07:06.387Z,6.20
2023-05-08T00:09:44.909Z,6.10
2023-05-08T00:12:21.474Z,6.10
2023-05-08T00:14:58.242Z,6.00
2023-05-08T00:17:35.241Z,6.00
2023-05-08T00:20:19.128Z,5.90
2023-05-08T00:22:55.875Z,5.90
2023-05-08T00:25:36.597Z,5.90
2023-05-08T00:28:12.791Z,5.70
2023-05-08T00:30:51.177Z,5.80
2023-05-08T00:33:26.894Z,5.70
2023-05-08T00:36:08.699Z,5.70
2023-05-08T00:38:47.962Z,5.70
2023-05-08T00:41:22.565Z,5.60
2023-05-08T00:43:59.117Z,5.60
2023-05-08T00:46:37.410Z,5.60
2023-05-08T00:49:15.826Z,5.50
2023-05-08T00:51:59.085Z,5.50
2023-05-08T00:54:35.239Z,5.40
2023-05-08T00:57:11.435Z,5.40
2023-05-08T00:59:49.354Z,5.40
2023-05-08T01:02:26.520Z,5.30
2023-05-08T01:05:04.373Z,5.30
2023-05-08T01:07:44.571Z,5.30
2023-05-08T01:10:22.773Z,5.20
2023-05-08T01:12:57.783Z,5.20
2023-05-08T01:15:47.805Z,5.10
2023-05-08T01:18:25.686Z,5.10
2023-05-08T01:21:04.543Z,5.00
2023-05-08T01:24:20.854Z,5.00
2023-05-08T01:26:56.523Z,5.00
2023-05-08T01:30:00.559Z,5.00
2023-05-08T01:32:43.282Z,4.90
2023-05-08T01:35:21.572Z,4.90
2023-05-08T01:37:59.711Z,4.90
2023-05-08T01:40:38.326Z,4.80
2023-05-08T01:43:17.926Z,4.80
2023-05-08T01:45:54.715Z,4.80
2023-05-08T01:48:36.306Z,4.80
2023-05-08T01:51:17.163Z,4.70
2023-05-08T01:53:53.646Z,4.70
2023-05-08T01:56:32.222Z,4.70
2023-05-08T01:59:08.837Z,4.60
2023-05-08T02:01:44.233Z,4.60
2023-05-08T02:04:25.383Z,4.60
2023-05-08T02:07:00.977Z,4.60
2023-05-08T02:09:38.203Z,4.50
2023-05-08T02:12:14.121Z,4.50
2023-05-08T02:14:50.375Z,4.50
2023-05-08T02:17:25.280Z,4.50
2023-05-08T02:20:06.034Z,4.40
2023-05-08T02:22:41.559Z,4.40
2023-05-08T02:25:21.354Z,4.40
2023-05-08T02:27:56.756Z,4.40
2023-05-08T02:30:31.752Z,4.30
2023-05-08T02:33:08.726Z,4.30
2023-05-08T02:35:48.467Z,4.20
2023-05-08T02:38:26.064Z,4.30
2023-05-08T02:41:04.089Z,4.20
2023-05-08T02:43:43.106Z,4.20
2023-05-08T02:46:17.971Z,4.10
2023-05-08T02:49:02.579Z,4.10
2023-05-08T02:51:51.052Z,4.10
2023-05-08T02:54:29.389Z,4.00
2023-05-08T02:57:08.717Z,4.00
2023-05-08T02:59:42.772Z,4.00
2023-05-08T03:02:28.942Z,4.00
2023-05-08T03:05:10.672Z,4.00
2023-05-08T03:07:54.324Z,3.90
2023-05-08T03:10:33.304Z,3.90
2023-05-08T03:13:10.847Z,3.90
2023-05-08T03:15:50.459Z,3.90
2023-05-08T03:18:31.156Z,3.90
2023-05-08T03:21:10.251Z,3.90
2023-05-08T03:23:49.697Z,3.90
2023-05-08T03:26:25.852Z,3.80
2023-05-08T03:29:00.168Z,3.80
2023-05-08T03:31:40.748Z,3.90
2023-05-08T03:34:17.068Z,3.80
2023-05-08T03:36:52.265Z,3.90
2023-05-08T03:39:32.254Z,3.90
2023-05-08T03:42:10.577Z,3.90
2023-05-08T03:44:45.897Z,3.90
2023-05-08T03:47:24.685Z,4.00
2023-05-08T03:49:59.878Z,4.00
2023-05-08T03:52:37.313Z,4.20
2023-05-08T03:55:11.694Z,4.30
2023-05-08T03:57:55.562Z,4.40
2023-05-08T04:00:38.499Z,4.60
2023-05-08T04:03:25.036Z,4.80
2023-05-08T04:06:04.449Z,5.00
2023-05-08T04:08:48.288Z,5.20
2023-05-08T04:11:28.090Z,5.30
2023-05-08T04:14:09.870Z,5.50
2023-05-08T04:16:51.816Z,5.70
2023-05-08T04:19:26.780Z,5.80
2023-05-08T04:22:03.118Z,6.00
2023-05-08T04:24:40.988Z,6.20
2023-05-08T04:27:20.936Z,6.40
2023-05-08T04:30:00.878Z,6.60
2023-05-08T04:32:41.385Z,6.80
2023-05-08T04:35:22.275Z,7.00
2023-05-08T04:38:00.247Z,7.10
2023-05-08T04:40:35.046Z,7.30
2023-05-08T04:43:12.324Z,7.50
2023-05-08T04:45:50.578Z,7.70
2023-05-08T04:48:26.498Z,7.90
2023-05-08T04:51:05.089Z,8.20
2023-05-08T04:53:40.560Z,8.40
2023-05-08T04:56:20.309Z,8.70
2023-05-08T04:58:56.870Z,8.90
2023-05-08T05:01:37.241Z,9.20
2023-05-08T05:04:15.114Z,9.30
2023-05-08T05:06:51.720Z,9.40
2023-05-08T05:09:30.748Z,9.50
2023-05-08T05:12:08.522Z,9.60
2023-05-08T05:14:46.492Z,9.90
2023-05-08T05:17:22.420Z,10.00
2023-05-08T05:20:04.628Z,10.10
2023-05-08T05:22:40.587Z,10.10
2023-05-08T05:25:20.737Z,10.00
2023-05-08T05:27:59.759Z,9.90
2023-05-08T05:30:36.913Z,10.00
2023-05-08T05:33:16.322Z,10.10
2023-05-08T05:35:59.429Z,10.30
2023-05-08T05:38:36.505Z,10.30
2023-05-08T05:41:14.054Z,10.60
2023-05-08T05:43:51.636Z,10.60
2023-05-08T05:46:32.897Z,10.80
2023-05-08T05:49:17.854Z,11.00
2023-05-08T05:52:04.197Z,11.00
2023-05-08T05:54:49.098Z,11.30
2023-05-08T05:57:26.987Z,11.30
2023-05-08T06:00:06.363Z,11.40
2023-05-08T06:02:50.218Z,11.60
2023-05-08T06:05:29.816Z,11.90
2023-05-08T06:08:13.564Z,12.10
2023-05-08T06:10:51.757Z,12.30
2023-05-08T06:13:29.159Z,12.20
2023-05-08T06:16:08.515Z,12.50
2023-05-08T06:18:48.736Z,12.70
2023-05-08T06:21:30.155Z,12.80
2023-05-08T06:24:09.917Z,13.10
2023-05-08T06:26:47.433Z,13.20
2023-05-08T06:29:27.130Z,13.30
2023-05-08T06:32:10.829Z,13.40
2023-05-08T06:34:49.737Z,13.30
2023-05-08T06:37:26.131Z,13.30
2023-05-08T06:40:12.148Z,13.60
2023-05-08T06:42:49.075Z,13.80
2023-05-08T06:45:25.292Z,14.10
2023-05-08T06:48:02.986Z,14.20
2023-05-08T06:50:43.480Z,14.30
2023-05-08T06:53:23.309Z,14.20
2023-05-08T06:56:03.717Z,14.30
2023-05-08T06:58:46.316Z,14.40
2023-05-08T07:01:30.104Z,14.40
2023-05-08T07:04:09.537Z,14.50
2023-05-08T07:06:53.873Z,14.60
2023-05-08T07:09:38.258Z,14.60
2023-05-08T07:12:21.318Z,14.60
2023-05-08T07:15:07.768Z,14.60
2023-05-08T07:17:59.641Z,14.70
2023-05-08T07:23:16.520Z,14.90
2023-05-08T07:25:56.638Z,14.90
2023-05-08T07:28:38.560Z,15.00
2023-05-08T07:31:15.335Z,15.00
2023-05-08T07:33:52.541Z,15.10
2023-05-08T07:36:31.410Z,15.40
2023-05-08T07:39:12.811Z,15.30
2023-05-08T07:41:51.901Z,15.40
2023-05-08T07:44:37.445Z,15.50
2023-05-08T07:47:22.417Z,15.50
2023-05-08T07:50:10.220Z,15.40
2023-05-08T07:52:50.382Z,15.30
2023-05-08T07:55:38.549Z,15.20
2023-05-08T07:58:15.704Z,14.90
2023-05-08T08:00:59.930Z,14.90
2023-05-08T08:03:36.874Z,14.80
2023-05-08T08:06:14.010Z,14.70
2023-05-08T08:08:51.205Z,14.40
2023-05-08T08:11:37.385Z,14.50
2023-05-08T08:14:17.750Z,14.50
2023-05-08T08:16:59.294Z,14.50
2023-05-08T08:19:39.885Z,14.40
2023-05-08T08:22:19.412Z,14.50
2023-05-08T08:25:06.082Z,14.50
2023-05-08T08:27:44.601Z,14.50
2023-05-08T08:30:21.926Z,14.60
2023-05-08T08:33:04.338Z,14.70
2023-05-08T08:35:44.657Z,14.80
2023-05-08T08:38:24.922Z,14.90
2023-05-08T08:41:05.185Z,15.20
2023-05-08T08:43:44.021Z,15.30
2023-05-08T08:46:21.834Z,15.30
2023-05-08T08:49:03.151Z,15.30
2023-05-08T08:51:56.459Z,15.40
2023-05-08T08:54:37.628Z,15.70
2023-05-08T08:57:14.026Z,15.80
2023-05-08T08:59:50.603Z,15.60
2023-05-08T09:02:27.162Z,15.80
2023-05-08T09:05:06.682Z,15.90
2023-05-08T09:07:50.516Z,15.90
2023-05-08T09:10:32.683Z,16.00
2023-05-08T09:13:11.160Z,16.10
2023-05-08T09:15:51.071Z,16.20
2023-05-08T09:18:27.913Z,16.10
2023-05-08T09:21:15.070Z,16.10
2023-05-08T09:24:00.713Z,15.90
2023-05-08T09:26:37.915Z,15.90
2023-05-08T09:29:14.986Z,15.90
2023-05-08T09:31:52.908Z,15.90
2023-05-08T09:34:31.104Z,16.00
2023-05-08T09:37:21.735Z,15.90
2023-05-08T09:40:00.968Z,15.60
2023-05-08T09:42:36.612Z,15.60
2023-05-08T09:45:16.330Z,15.60
2023-05-08T09:48:00.510Z,15.50
2023-05-08T09:50:43.639Z,15.50
2023-05-08T09:53:22.863Z,15.50
2023-05-08T09:56:04.284Z,15.70
2023-05-08T09:58:48.806Z,15.60
2023-05-08T10:01:22.754Z,15.80
2023-05-08T10:04:04.570Z,15.90
2023-05-08T10:06:41.022Z,16.00
2023-05-08T10:09:27.378Z,16.10
2023-05-08T10:12:08.849Z,16.00
2023-05-08T10:14:46.782Z,15.90
2023-05-08T10:17:36.723Z,15.90
2023-05-08T10:20:35.599Z,15.90
2023-05-08T10:23:14.662Z,15.90
2023-05-08T10:25:57.347Z,15.90
2023-05-08T10:28:37.203Z,15.70
2023-05-08T10:31:16.022Z,15.50
2023-05-08T10:33:52.789Z,15.60
2023-05-08T10:36:30.995Z,15.60
2023-05-08T10:39:07.056Z,15.60
2023-05-08T10:42:02.482Z,15.60
2023-05-08T10:44:38.406Z,15.70
2023-05-08T10:47:19.224Z,15.70
2023-05-08T10:49:59.118Z,15.60
2023-05-08T10:52:38.134Z,15.60
2023-05-08T10:55:20.319Z,15.60
2023-05-08T10:57:59.443Z,15.50
2023-05-08T11:00:56.637Z,15.60
2023-05-08T11:03:34.250Z,15.50
2023-05-08T11:06:11.448Z,15.70
2023-05-08T11:08:52.137Z,15.60
2023-05-08T11:11:33.932Z,15.60
2023-05-08T11:14:16.846Z,15.60
2023-05-08T11:17:11.485Z,15.50
2023-05-08T11:20:01.444Z,15.40
2023-05-08T11:22:41.407Z,15.40
2023-05-08T11:25:17.722Z,15.50
2023-05-08T11:28:17.404Z,15.60
2023-05-08T11:30:57.373Z,15.70
2023-05-08T11:33:41.969Z,15.60
2023-05-08T11:36:18.458Z,15.70
2023-05-08T11:39:13.788Z,15.60
2023-05-08T11:41:49.734Z,15.70
2023-05-08T11:44:26.732Z,15.70
2023-05-08T11:47:02.527Z,15.70
2023-05-08T11:49:41.121Z,15.60
2023-05-08T11:52:21.927Z,15.50
2023-05-08T11:55:01.805Z,15.40
2023-05-08T11:57:39.907Z,15.40
2023-05-08T12:00:18.539Z,15.40
2023-05-08T12:02:56.881Z,15.40
2023-05-08T12:05:37.157Z,15.30
2023-05-08T12:08:13.082Z,15.30
2023-05-08T12:10:57.300Z,15.20
2023-05-08T12:13:33.816Z,15.20
2023-05-08T12:16:15.931Z,15.20
2023-05-08T12:18:53.099Z,15.20
2023-05-08T12:21:34.898Z,15.20
2023-05-08T12:24:12.707Z,15.10
2023-05-08T12:26:48.452Z,15.10
2023-05-08T12:29:28.833Z,15.10
2023-05-08T12:32:04.206Z,15.10
2023-05-08T12:34:40.746Z,15.00
2023-05-08T12:40:37.566Z,14.90
2023-05-08T12:43:18.858Z,15.00
2023-05-08T12:46:01.353Z,14.90
2023-05-08T12:48:38.287Z,15.00
2023-05-08T12:51:17.404Z,15.00
2023-05-08T12:53:55.381Z,15.10
2023-05-08T12:56:33.912Z,15.10
2023-05-08T12:59:13.740Z,15.10
2023-05-08T13:01:55.363Z,15.10
2023-05-08T13:04:35.464Z,15.10
2023-05-08T13:07:13.705Z,15.10
2023-05-08T13:10:04.734Z,15.10
2023-05-08T13:12:44.286Z,15.10
2023-05-08T13:15:24.390Z,15.00
2023-05-08T13:18:04.488Z,15.00
2023-05-08T13:20:41.237Z,14.90
2023-05-08T13:26:22.326Z,15.00
2023-05-08T13:28:57.736Z,15.00
2023-05-08T13:31:40.291Z,15.00
2023-05-08T13:34:18.789Z,15.00
2023-05-08T13:37:00.342Z,15.00
2023-05-08T13:39:37.681Z,15.00
2023-05-08T13:42:15.723Z,15.10
2023-05-08T13:44:52.989Z,15.10
2023-05-08T13:47:34.194Z,15.10
2023-05-08T13:50:22.352Z,15.10
2023-05-08T13:52:58.698Z,15.10
2023-05-08T13:55:40.996Z,15.10
2023-05-08T13:58:15.395Z,15.00
2023-05-08T14:00:55.715Z,15.00
2023-05-08T14:03:35.419Z,15.10
2023-05-08T14:06:12.490Z,15.10
2023-05-08T14:08:51.467Z,15.20
2023-05-08T14:11:31.077Z,15.10
2023-05-08T14:14:07.174Z,15.10
2023-05-08T14:16:43.428Z,15.20
2023-05-08T14:19:28.202Z,15.20
2023-05-08T14:22:04.229Z,15.20
2023-05-08T14:24:44.964Z,15.20
2023-05-08T14:27:26.832Z,15.30
2023-05-08T14:30:04.494Z,15.20
2023-05-08T14:32:43.805Z,15.20
2023-05-08T14:35:25.632Z,15.20
2023-05-08T14:38:03.322Z,15.20
2023-05-08T14:40:39.400Z,15.20
2023-05-08T14:43:16.659Z,15.20
2023-05-08T14:45:53.152Z,15.20
2023-05-08T14:48:31.655Z,15.20
2023-05-08T14:51:12.794Z,15.20
2023-05-08T14:53:52.433Z,15.10
2023-05-08T14:56:28.925Z,15.20
2023-05-08T14:59:08.412Z,15.20
2023-05-08T15:01:51.309Z,15.20
2023-05-08T15:04:36.658Z,15.20
2023-05-08T15:07:22.895Z,15.20
2023-05-08T15:12:56.275Z,15.20
2023-05-08T15:15:36.792Z,15.20
2023-05-08T15:18:16.048Z,15.20
2023-05-08T15:20:55.716Z,15.20
2023-05-08T15:23:36.746Z,15.20
2023-05-08T15:26:10.483Z,15.20
2023-05-08T15:28:52.631Z,15.20
2023-05-08T15:31:30.309Z,15.20
2023-05-08T15:34:06.340Z,15.20
2023-05-08T15:39:52.706Z,15.10
2023-05-08T15:42:38.644Z,15.10
2023-05-08T15:48:21.620Z,15.10
2023-05-08T15:57:08.496Z,15.00
2023-05-08T16:03:03.966Z,15.00
2023-05-08T16:05:47.702Z,15.00
2023-05-08T16:08:24.314Z,15.10
2023-05-08T16:13:47.696Z,14.90
2023-05-08T16:16:26.696Z,14.90
2023-05-08T16:19:10.031Z,14.90
2023-05-08T16:21:50.240Z,14.90
2023-05-08T16:24:27.311Z,14.80
2023-05-08T16:27:03.857Z,14.80
2023-05-08T16:29:42.209Z,14.80
2023-05-08T16:32:23.498Z,14.70
2023-05-08T16:35:06.244Z,14.70
2023-05-08T16:37:42.396Z,14.70
2023-05-08T16:40:18.786Z,14.70
2023-05-08T16:42:55.687Z,14.70
2023-05-08T16:45:35.117Z,14.70
2023-05-08T16:48:12.629Z,14.70
2023-05-08T16:50:54.103Z,14.60
2023-05-08T16:53:29.999Z,14.60
2023-05-08T16:56:07.532Z,14.50
2023-05-08T16:58:44.023Z,14.50
2023-05-08T17:01:25.042Z,14.50
2023-05-08T17:04:03.720Z,14.60
2023-05-08T17:06:42.891Z,14.40
2023-05-08T17:09:21.170Z,14.40
2023-05-08T17:12:04.928Z,14.40
2023-05-08T17:17:44.724Z,14.20
2023-05-08T17:20:21.530Z,14.20
2023-05-08T17:23:01.534Z,14.20
2023-05-08T17:28:26.581Z,14.10
2023-05-08T17:34:02.276Z,14.00
2023-05-08T17:36:42.333Z,13.90
2023-05-08T17:39:36.608Z,13.80
2023-05-08T17:42:13.822Z,13.80
2023-05-08T17:44:55.341Z,13.80
2023-05-08T17:47:31.014Z,13.70
2023-05-08T17:50:22.526Z,13.70
2023-05-08T17:53:00.690Z,13.60
2023-05-08T17:55:41.793Z,13.60
2023-05-08T17:58:18.142Z,13.50
2023-05-08T18:00:56.414Z,13.40
2023-05-08T18:03:34.994Z,13.40
2023-05-08T18:06:13.794Z,13.30
2023-05-08T18:08:50.556Z,13.30
2023-05-08T18:11:30.303Z,13.20
2023-05-08T18:14:08.849Z,13.20
2023-05-08T18:16:44.334Z,13.10
2023-05-08T18:19:24.089Z,13.00
2023-05-08T18:22:03.456Z,13.00
2023-05-08T18:24:39.879Z,12.90
2023-05-08T18:27:21.617Z,12.80
2023-05-08T18:29:57.092Z,12.70
2023-05-08T18:32:31.705Z,12.70
2023-05-08T18:35:07.028Z,12.60
2023-05-08T18:37:41.624Z,12.50
2023-05-08T18:40:17.290Z,12.50
2023-05-08T18:42:57.024Z,12.40
2023-05-08T18:45:31.787Z,12.40
2023-05-08T18:48:06.850Z,12.30
2023-05-08T18:50:42.126Z,12.30
2023-05-08T18:53:17.539Z,12.20
2023-05-08T18:55:53.280Z,12.10
2023-05-08T18:58:33.729Z,12.10
2023-05-08T19:01:09.623Z,12.00
2023-05-08T19:03:45.102Z,12.00
2023-05-08T19:06:21.886Z,11.90
2023-05-08T19:08:57.560Z,11.90
2023-05-08T19:11:37.712Z,11.80
2023-05-08T19:14:21.368Z,11.80
2023-05-08T19:16:58.509Z,11.60
2023-05-08T19:19:37.105Z,11.60
2023-05-08T19:22:15.246Z,11.60
2023-05-08T19:24:56.948Z,11.50
2023-05-08T19:27:32.605Z,11.40
2023-05-08T19:30:12.857Z,11.40
2023-05-08T19:32:48.114Z,11.30
2023-05-08T19:35:25.807Z,11.20
2023-05-08T19:38:01.541Z,11.20
2023-05-08T19:40:48.292Z,11.10
2023-05-08T19:43:29.237Z,11.10
2023-05-08T19:46:09.406Z,11.10
2023-05-08T19:48:46.439Z,11.00
2023-05-08T19:51:25.318Z,11.00
2023-05-08T19:53:59.813Z,10.90
2023-05-08T19:56:37.232Z,10.90
2023-05-08T19:59:16.038Z,10.80
2023-05-08T20:01:57.455Z,10.80
2023-05-08T20:04:42.145Z,10.70
2023-05-08T20:07:31.456Z,10.70
2023-05-08T20:10:08.713Z,10.60
2023-05-08T20:12:49.632Z,10.50
2023-05-08T20:15:28.080Z,10.50
2023-05-08T20:18:12.266Z,10.40
2023-05-08T20:20:55.188Z,10.40
2023-05-08T20:24:13.617Z,10.30
2023-05-08T20:27:01.853Z,10.20
2023-05-08T20:29:47.504Z,10.20
2023-05-08T20:32:38.735Z,10.20
2023-05-08T20:35:18.285Z,10.10
2023-05-08T20:37:55.995Z,10.10
2023-05-08T20:40:43.260Z,10.00
2023-05-08T20:43:23.751Z,10.00
2023-05-08T20:46:17.788Z,9.90
2023-05-08T20:49:15.581Z,9.90
2023-05-08T20:52:17.855Z,9.80
2023-05-08T20:55:04.856Z,9.80
2023-05-08T21:12:45.689Z,9.50
2023-05-08T21:18:25.614Z,9.30
2023-05-08T21:21:03.800Z,9.40
2023-05-08T21:23:42.856Z,9.20
2023-05-08T21:26:28.391Z,9.20
2023-05-08T21:29:06.615Z,9.20
2023-05-08T22:00:08.323Z,8.60
2023-05-08T22:02:45.145Z,8.60
2023-05-08T22:08:18.422Z,8.40
2023-05-08T22:11:04.826Z,8.30
2023-05-08T22:13:42.687Z,8.30
2023-05-08T22:16:27.074Z,8.20
2023-05-08T22:22:05.042Z,8.10
2023-05-08T22:24:42.824Z,8.10
2023-05-08T22:27:25.089Z,8.00
2023-05-08T22:30:02.235Z,8.00
2023-05-08T22:32:54.649Z,8.00
2023-05-08T22:38:40.885Z,7.90
2023-05-08T22:44:35.622Z,7.90
2023-05-08T23:05:59.938Z,7.60
2023-05-08T23:08:48.840Z,7.50
2023-05-08T23:11:40.473Z,7.50
2023-05-08T23:14:22.100Z,7.40
2023-05-08T23:16:58.850Z,7.40
2023-05-08T23:19:42.505Z,7.30
2023-05-08T23:22:23.362Z,7.30
2023-05-08T23:25:12.329Z,7.20
2023-05-08T23:27:51.861Z,7.20
2023-05-08T23:30:30.336Z,7.10
2023-05-08T23:33:06.084Z,7.10
2023-05-08T23:35:45.498Z,7.10
2023-05-08T23:38:27.949Z,7.10
2023-05-08T23:41:09.131Z,7.00
2023-05-08T23:43:45.551Z,7.00
2023-05-08T23:46:22.880Z,6.90
2023-05-08T23:48:58.338Z,6.90
2023-05-08T23:51:36.186Z,6.90
2023-05-08T23:54:16.620Z,6.80
2023-05-08T23:56:55.477Z,6.80
2023-05-08T23:59:32.084Z,6.70
